Hlavní strana
METAR-TAF:

METAR-TAF

Letiště :

Letiště Vratislav

Vratislav, Polsko

zeměpisná šířka: 51-06N, zeměpisná délka: 016-53E, výška: 120 m

Aktuální stav počasí

Zpráva byla vytvořena před 24 minutami, v 16:00 UTC
Východní vítr 9 kt
Teplota 5°C
Vlhkost vzduchu 75%
Tlak 1036 hPa
Viditelnost 10 km a více
Oblačno až skoro zataženo ve výšce 3500 ft

METAR: EPWR 161600Z 10009KT 9999 BKN035 05/01 Q1036

Čas: 17:24 (16:24 UTC)

Předpověď počasí

Zpráva byla vytvořena před 1 hodinou a 54 minutami, v 14:30 UTC
Předpověď platná od 16 v 15 UTC do 17 v 15 UTC
Východní vítr 10 kt
Viditelnost 10 km a více
Oblačno až skoro zataženo ve výšce 2300 ft
Dočasný
od 16 v 21 UTC do 17 v 07 UTC
Oblačno až skoro zataženo ve výšce 1200 ft

TAF: EPWR 161430Z 1615/1715 10010KT 9999 BKN023 TEMPO 1621/1707 BKN012

Stav a předpovědi počasí z více než 4 000 letišť (zprávy METAR a TAF).

Červené a žluté tečky na mapě představují dostupné meteorologické stanice.

Když kurzor umístíte na tečku, zobrazí se název stanice.

Pak kliknutím zobrazíte stav a předpověď počasí.

Chcete-li změnit mapu, kliknutím na zelené tlačítko se znaménkem +mapu přiblížíte, kliknutím na zelené tlačítko se znaménkem – mapu oddálíte a kliknutím na zelené šipky přejdete na sousední mapy.


METAR-TAF: